createdAt,value
2018-11-02T00:00:49.142Z,87.58
2018-11-02T00:04:55.923Z,86.84
2018-11-02T00:09:05.787Z,87.72
2018-11-02T00:13:12.607Z,87.46
2018-11-02T00:17:19.312Z,87.65
2018-11-02T00:21:25.909Z,87.62
2018-11-02T00:25:32.641Z,87.63
2018-11-02T00:29:39.448Z,87.72
2018-11-02T00:33:46.117Z,87.39
2018-11-02T00:37:52.921Z,86.92
2018-11-02T00:41:59.573Z,86.95
2018-11-02T00:46:06.908Z,86.32
2018-11-02T00:50:13.970Z,85.90
2018-11-02T00:54:20.711Z,85.83
2018-11-02T00:58:27.411Z,85.88
2018-11-02T01:02:34.166Z,86.04
2018-11-02T01:06:40.932Z,85.92
2018-11-02T01:10:47.631Z,86.33
2018-11-02T01:14:54.303Z,86.44
2018-11-02T01:19:01.151Z,86.04
2018-11-02T01:23:08.068Z,86.10
2018-11-02T01:27:14.835Z,86.19
2018-11-02T01:31:21.617Z,86.64
2018-11-02T01:35:28.337Z,86.90
2018-11-02T01:39:35.086Z,87.01
2018-11-02T01:43:41.907Z,86.87
2018-11-02T01:47:48.531Z,86.82
2018-11-02T01:51:55.391Z,86.95
2018-11-02T01:56:01.977Z,86.90
2018-11-02T02:00:09.768Z,87.46
2018-11-02T02:04:16.554Z,87.13
2018-11-02T02:08:23.257Z,86.91
2018-11-02T02:12:29.977Z,86.83
2018-11-02T02:16:36.703Z,86.54
2018-11-02T02:20:43.427Z,86.50
2018-11-02T02:24:50.141Z,86.41
2018-11-02T02:28:56.843Z,86.18
2018-11-02T02:33:03.569Z,85.74
2018-11-02T02:37:10.331Z,85.20
2018-11-02T02:41:17.069Z,84.67
2018-11-02T02:45:23.785Z,84.12
2018-11-02T02:49:30.485Z,83.31
2018-11-02T02:53:37.278Z,83.61
2018-11-02T02:57:43.921Z,83.90
2018-11-02T03:01:50.635Z,84.42
2018-11-02T03:05:57.481Z,85.04
2018-11-02T03:10:04.191Z,85.48
2018-11-02T03:14:10.912Z,85.31
2018-11-02T03:18:17.601Z,85.74
2018-11-02T03:22:24.353Z,86.17
2018-11-02T03:26:30.981Z,86.52
2018-11-02T03:30:37.709Z,86.91
2018-11-02T03:34:44.406Z,87.28
2018-11-02T03:38:51.157Z,87.50
2018-11-02T03:42:57.933Z,87.60
2018-11-02T03:47:04.540Z,87.90
2018-11-02T03:51:11.253Z,87.87
2018-11-02T03:55:18.060Z,87.95
2018-11-02T03:59:24.779Z,88.06
2018-11-02T04:03:31.402Z,88.09
2018-11-02T04:07:38.175Z,88.01
2018-11-02T04:11:44.901Z,88.07
2018-11-02T04:15:51.699Z,87.93
2018-11-02T04:19:58.319Z,87.99
2018-11-02T04:24:05.001Z,87.73
2018-11-02T04:28:11.711Z,87.33
2018-11-02T04:32:18.432Z,87.16
2018-11-02T04:36:25.162Z,87.17
2018-11-02T04:40:31.862Z,87.40
2018-11-02T04:44:38.596Z,87.55
2018-11-02T04:48:45.366Z,87.87
2018-11-02T04:52:52.102Z,87.97
2018-11-02T04:56:58.924Z,87.95
2018-11-02T05:01:05.542Z,87.81
2018-11-02T05:05:12.439Z,87.95
2018-11-02T05:09:19.057Z,88.29
2018-11-02T05:13:25.824Z,88.25
2018-11-02T05:17:32.716Z,88.15
2018-11-02T05:21:39.431Z,88.17
2018-11-02T05:25:46.190Z,88.22
2018-11-02T05:29:52.883Z,88.27
2018-11-02T05:33:59.579Z,88.44
2018-11-02T05:38:06.313Z,88.55
2018-11-02T05:42:13.069Z,88.41
2018-11-02T05:46:19.834Z,88.79
2018-11-02T05:50:26.988Z,88.58
2018-11-02T05:54:33.791Z,88.98
2018-11-02T05:58:40.658Z,89.05
2018-11-02T06:02:47.496Z,89.05
2018-11-02T06:06:54.265Z,89.27
2018-11-02T06:11:01.140Z,89.28
2018-11-02T06:15:07.967Z,89.33
2018-11-02T06:19:15.272Z,90.20
2018-11-02T06:23:22.518Z,91.58
2018-11-02T06:27:31.551Z,90.10
2018-11-02T06:31:38.949Z,89.90
2018-11-02T06:35:45.801Z,90.15
2018-11-02T06:39:52.447Z,90.58
2018-11-02T06:43:59.306Z,90.41
2018-11-02T06:48:06.245Z,90.06
2018-11-02T06:52:13.034Z,89.71
2018-11-02T06:56:19.759Z,89.86
2018-11-02T07:00:27.627Z,90.03
2018-11-02T07:04:34.301Z,90.25
2018-11-02T07:08:41.205Z,90.25
2018-11-02T07:12:47.764Z,90.13
2018-11-02T07:16:54.516Z,90.03
2018-11-02T07:21:01.377Z,90.15
2018-11-02T07:25:08.714Z,89.04
2018-11-02T07:29:15.382Z,88.80
2018-11-02T07:33:22.699Z,89.46
2018-11-02T07:37:29.628Z,88.09
2018-11-02T07:41:36.440Z,87.41
2018-11-02T07:45:43.080Z,85.50
2018-11-02T07:49:52.778Z,82.73
2018-11-02T07:53:59.470Z,81.02
2018-11-02T07:58:06.428Z,79.57
2018-11-02T08:02:13.112Z,77.12
2018-11-02T08:06:19.842Z,76.22
2018-11-02T08:10:26.667Z,74.06
2018-11-02T08:14:47.687Z,73.21
2018-11-02T08:18:52.888Z,70.89
2018-11-02T08:22:59.616Z,69.66
2018-11-02T08:27:10.510Z,70.61
2018-11-02T08:31:17.152Z,69.80
2018-11-02T08:35:24.007Z,69.09
2018-11-02T08:39:30.831Z,68.15
2018-11-02T08:43:37.613Z,66.41
2018-11-02T08:47:44.532Z,66.71
2018-11-02T08:51:51.254Z,67.85
2018-11-02T08:55:58.028Z,66.78
2018-11-02T09:00:04.929Z,66.76
2018-11-02T09:04:11.544Z,66.90
2018-11-02T09:08:18.247Z,67.31
2018-11-02T09:12:33.107Z,67.82
2018-11-02T09:16:39.743Z,68.92
2018-11-02T09:20:46.578Z,68.61
2018-11-02T09:24:53.408Z,68.79
2018-11-02T09:29:00.129Z,68.51
2018-11-02T09:33:07.145Z,68.18
2018-11-02T09:37:13.834Z,68.46
2018-11-02T09:41:20.549Z,68.40
2018-11-02T09:45:27.364Z,68.13
2018-11-02T09:49:33.978Z,68.25
2018-11-02T09:53:40.682Z,68.64
2018-11-02T09:57:47.659Z,68.51
2018-11-02T10:01:56.420Z,68.07
2018-11-02T10:06:03.251Z,67.44
2018-11-02T10:10:11.459Z,67.25
2018-11-02T10:14:18.185Z,66.64
2018-11-02T10:18:24.815Z,66.13
2018-11-02T10:22:31.621Z,66.67
2018-11-02T10:26:38.259Z,66.37
2018-11-02T10:30:44.975Z,65.97
2018-11-02T10:34:52.359Z,66.00
2018-11-02T10:39:00.253Z,65.98
2018-11-02T10:43:13.283Z,65.66
2018-11-02T10:47:20.097Z,65.13
2018-11-02T10:51:26.901Z,65.02
2018-11-02T10:55:33.590Z,65.03
2018-11-02T10:59:40.541Z,63.81
2018-11-02T11:03:47.248Z,64.60
2018-11-02T11:07:54.051Z,64.08
2018-11-02T11:12:00.884Z,64.23
2018-11-02T11:16:07.710Z,64.02
2018-11-02T11:20:15.244Z,64.12
2018-11-02T11:24:21.953Z,63.29
2018-11-02T11:28:28.786Z,62.15
2018-11-02T11:32:35.424Z,61.70
2018-11-02T11:36:42.129Z,61.00
2018-11-02T11:40:48.935Z,60.32
2018-11-02T11:44:55.658Z,58.25
2018-11-02T11:49:02.638Z,56.90
2018-11-02T11:53:09.164Z,54.91
2018-11-02T11:57:15.936Z,54.36
2018-11-02T12:01:22.709Z,50.70
2018-11-02T12:05:29.436Z,50.70
2018-11-02T12:09:36.171Z,49.07
2018-11-02T12:13:42.935Z,47.74
2018-11-02T12:17:50.438Z,47.05
2018-11-02T12:21:57.065Z,44.70
2018-11-02T12:26:03.918Z,46.69
2018-11-02T12:30:14.171Z,44.00
2018-11-02T12:34:20.975Z,43.96
2018-11-02T12:38:27.707Z,43.85
2018-11-02T12:42:34.463Z,43.51
2018-11-02T12:46:41.150Z,42.79
2018-11-02T12:50:47.929Z,43.66
2018-11-02T12:54:54.714Z,42.72
2018-11-02T12:59:01.463Z,43.25
2018-11-02T13:03:08.248Z,42.08
2018-11-02T13:07:14.975Z,42.19
2018-11-02T13:11:21.670Z,45.72
2018-11-02T13:15:28.571Z,48.36
2018-11-02T13:19:35.196Z,48.41
2018-11-02T13:23:41.961Z,48.41
2018-11-02T13:27:50.132Z,48.50
2018-11-02T13:31:56.976Z,50.13
2018-11-02T13:36:03.913Z,50.64
2018-11-02T13:40:12.807Z,51.19
2018-11-02T13:44:19.671Z,52.00
2018-11-02T13:48:26.324Z,51.82
2018-11-02T13:52:33.101Z,53.10
2018-11-02T13:56:39.791Z,51.14
2018-11-02T14:00:46.554Z,52.19
2018-11-02T14:04:53.273Z,51.79
2018-11-02T14:09:00.813Z,51.81
2018-11-02T14:13:07.566Z,52.47
2018-11-02T14:17:14.344Z,52.66
2018-11-02T14:21:21.111Z,52.47
2018-11-02T14:25:27.831Z,54.54
2018-11-02T14:29:34.847Z,56.80
2018-11-02T14:33:41.661Z,58.24
2018-11-02T14:37:48.381Z,58.84
2018-11-02T14:41:55.114Z,60.09
2018-11-02T14:46:01.890Z,60.60
2018-11-02T14:50:10.293Z,60.60
2018-11-02T14:54:17.005Z,60.97
2018-11-02T14:58:23.725Z,61.94
2018-11-02T15:02:32.957Z,62.20
2018-11-02T15:06:39.575Z,62.56
2018-11-02T15:10:47.296Z,62.70
2018-11-02T15:14:54.002Z,63.48
2018-11-02T15:19:00.748Z,64.28
2018-11-02T15:23:07.828Z,65.02
2018-11-02T15:27:14.598Z,65.81
2018-11-02T15:31:21.326Z,66.64
2018-11-02T15:35:27.950Z,66.96
2018-11-02T15:39:34.677Z,67.07
2018-11-02T15:43:41.414Z,67.19
2018-11-02T15:47:48.171Z,67.70
2018-11-02T15:51:54.992Z,67.30
2018-11-02T15:56:01.826Z,67.48
2018-11-02T16:00:21.264Z,67.50
2018-11-02T16:04:27.951Z,67.17
2018-11-02T16:08:34.650Z,67.33
2018-11-02T16:12:42.040Z,66.65
2018-11-02T16:16:48.801Z,67.65
2018-11-02T16:20:55.601Z,68.16
2018-11-02T16:25:02.393Z,68.38
2018-11-02T16:29:09.153Z,68.86
2018-11-02T16:33:16.059Z,69.12
2018-11-02T16:37:22.670Z,69.60
2018-11-02T16:41:29.440Z,69.92
2018-11-02T16:45:36.171Z,70.29
2018-11-02T16:49:42.979Z,70.60
2018-11-02T16:53:49.811Z,70.96
2018-11-02T16:57:56.568Z,71.23
2018-11-02T17:02:03.274Z,71.55
2018-11-02T17:06:10.191Z,71.65
2018-11-02T17:10:17.033Z,71.46
2018-11-02T17:14:23.743Z,71.32
2018-11-02T17:18:30.746Z,71.67
2018-11-02T17:22:37.435Z,71.61
2018-11-02T17:26:44.224Z,71.88
2018-11-02T17:30:51.023Z,71.35
2018-11-02T17:34:59.073Z,71.40
2018-11-02T17:39:10.544Z,71.14
2018-11-02T17:43:19.624Z,70.92
2018-11-02T17:47:24.722Z,70.68
2018-11-02T17:51:32.692Z,70.10
2018-11-02T17:55:40.138Z,69.28
2018-11-02T17:59:51.307Z,68.80
2018-11-02T18:03:58.435Z,68.39
2018-11-02T18:08:05.521Z,69.25
2018-11-02T18:12:13.223Z,69.19
2018-11-02T18:16:20.028Z,69.72
2018-11-02T18:20:26.744Z,69.89
2018-11-02T18:24:33.487Z,68.88
2018-11-02T18:28:40.181Z,67.85
2018-11-02T18:32:46.932Z,67.96
2018-11-02T18:37:06.410Z,67.62
2018-11-02T18:41:14.311Z,67.96
2018-11-02T18:45:21.376Z,68.46
2018-11-02T18:49:28.221Z,68.86
2018-11-02T18:53:34.993Z,69.65
2018-11-02T18:57:41.732Z,70.40
2018-11-02T19:01:48.485Z,71.01
2018-11-02T19:05:55.183Z,71.53
2018-11-02T19:10:01.937Z,71.88
2018-11-02T19:14:08.697Z,72.11
2018-11-02T19:18:15.571Z,72.23
2018-11-02T19:22:22.356Z,72.31
2018-11-02T19:26:29.142Z,72.26
2018-11-02T19:30:35.866Z,72.11
2018-11-02T19:34:42.774Z,72.26
2018-11-02T19:38:49.475Z,72.02
2018-11-02T19:42:56.121Z,72.05
2018-11-02T19:47:05.236Z,71.83
2018-11-02T19:51:12.021Z,71.41
2018-11-02T19:55:18.808Z,71.03
2018-11-02T19:59:28.477Z,70.34
2018-11-02T20:03:35.247Z,69.28
2018-11-02T20:07:42.578Z,68.68
2018-11-02T20:11:49.622Z,68.22
2018-11-02T20:15:56.304Z,67.54
2018-11-02T20:20:03.234Z,67.04
2018-11-02T20:24:10.078Z,66.85
2018-11-02T20:28:17.007Z,66.64
2018-11-02T20:32:23.917Z,66.59
2018-11-02T20:36:33.146Z,66.27
2018-11-02T20:40:42.004Z,66.36
2018-11-02T20:44:46.674Z,66.68
2018-11-02T20:48:53.683Z,66.75
2018-11-02T20:53:00.258Z,66.79
2018-11-02T20:57:07.084Z,67.06
2018-11-02T21:01:13.833Z,66.94
2018-11-02T21:05:21.303Z,66.69
2018-11-02T21:09:28.361Z,66.93
2018-11-02T21:13:35.048Z,66.67
2018-11-02T21:17:47.133Z,66.18
2018-11-02T21:21:53.896Z,66.38
2018-11-02T21:26:00.588Z,66.70
2018-11-02T21:30:27.309Z,66.92
2018-11-02T21:34:34.121Z,67.16
2018-11-02T21:38:40.981Z,67.16
2018-11-02T21:42:47.857Z,67.38
2018-11-02T21:46:54.506Z,67.59
2018-11-02T21:51:01.449Z,68.29
2018-11-02T21:55:08.602Z,68.39
2018-11-02T21:59:15.324Z,68.27
2018-11-02T22:03:22.023Z,67.96
2018-11-02T22:07:28.844Z,67.92
2018-11-02T22:11:35.528Z,67.59
2018-11-02T22:15:42.353Z,67.52
2018-11-02T22:19:48.979Z,67.46
2018-11-02T22:23:55.830Z,67.09
2018-11-02T22:28:02.511Z,66.98
2018-11-02T22:32:09.435Z,66.43
2018-11-02T22:36:16.804Z,65.77
2018-11-02T22:40:23.484Z,65.58
2018-11-02T22:44:30.190Z,65.04
2018-11-02T22:48:36.966Z,65.09
2018-11-02T22:52:43.798Z,64.83
2018-11-02T22:56:50.554Z,64.70
2018-11-02T23:01:14.784Z,64.11
2018-11-02T23:05:21.539Z,64.48
2018-11-02T23:09:28.241Z,64.48
2018-11-02T23:13:35.184Z,64.80
2018-11-02T23:17:41.928Z,64.79
2018-11-02T23:21:48.776Z,64.22
2018-11-02T23:25:55.492Z,63.84
2018-11-02T23:30:02.405Z,63.71
2018-11-02T23:34:08.988Z,62.98
2018-11-02T23:38:19.037Z,63.09
2018-11-02T23:42:28.219Z,62.58
2018-11-02T23:46:37.815Z,62.70
2018-11-02T23:50:44.449Z,62.68
2018-11-02T23:54:51.169Z,62.68
2018-11-02T23:58:57.918Z,62.84
